Kiamika, Canada
Current Conditions -  °F | °C
As of 12:00 PM on Thursday 30 Oct 2014 (Local Time) from CYND Reporting Station
Broken Clouds Broken Clouds  
Wind Chill: 41°   Ceiling: 2000
Heat Index: 45°   Visibility: 15mi
Dew Point: 32°   Wind: 7mph
Humidity: 61%   Direction: 310°NW
Pressure: 30.01"   Gusts: NA
Location:  46.42°N, 75.37°W
Report Text: CYND 301600Z 31006KT 15SM BKN020 07/M00 A3001 RMK SC7 SLP165
Loading
Personal Weather Stations






























Interactive Weather Map New forecast layout! Learn more

10-Day Weather Forecast

Advertisements
Track Severe Weather on mobile